createdAt,value
2022-08-12T00:02:07.326Z,0
2022-08-12T00:03:17.695Z,0
2022-08-12T00:04:24.231Z,0
2022-08-12T00:06:30.125Z,0
2022-08-12T00:07:33.037Z,0
2022-08-12T00:08:39.334Z,0
2022-08-12T00:09:42.242Z,0
2022-08-12T00:11:47.601Z,0
2022-08-12T00:12:49.920Z,0
2022-08-12T00:13:53.100Z,0
2022-08-12T00:14:55.456Z,0
2022-08-12T00:17:03.036Z,0
2022-08-12T00:18:07.686Z,0
2022-08-12T00:19:10.601Z,0
2022-08-12T00:20:13.180Z,0
2022-08-12T00:22:19.044Z,0
2022-08-12T00:23:22.456Z,0
2022-08-12T00:24:25.087Z,0
2022-08-12T00:26:25.955Z,0
2022-08-12T00:27:45.694Z,0
2022-08-12T00:28:48.536Z,0
2022-08-12T00:29:51.663Z,0
2022-08-12T00:30:54.571Z,0
2022-08-12T00:33:06.013Z,0
2022-08-12T00:34:08.437Z,0
2022-08-12T00:35:15.827Z,0
2022-08-12T00:36:43.381Z,0
2022-08-12T00:38:55.291Z,0
2022-08-12T00:41:01.718Z,0
2022-08-12T00:42:04.555Z,0
2022-08-12T00:43:07.466Z,0
2022-08-12T00:44:12.488Z,0
2022-08-12T00:46:18.466Z,0
2022-08-12T00:48:30.364Z,0
2022-08-12T00:49:32.933Z,0
2022-08-12T00:51:39.044Z,0
2022-08-12T00:53:45.211Z,0
2022-08-12T00:54:47.271Z,0
2022-08-12T00:55:50.099Z,0
2022-08-12T00:56:53.651Z,0
2022-08-12T00:58:58.639Z,0
2022-08-12T01:00:01.301Z,0
2022-08-12T01:02:14.835Z,0
2022-08-12T01:04:21.275Z,0
2022-08-12T01:06:25.922Z,0
2022-08-12T01:07:29.170Z,0
2022-08-12T01:09:34.766Z,0
2022-08-12T01:11:40.033Z,0
2022-08-12T01:12:42.842Z,0
2022-08-12T01:13:45.132Z,0
2022-08-12T01:14:47.746Z,0
2022-08-12T01:16:53.103Z,0
2022-08-12T01:17:56.300Z,0
2022-08-12T01:18:59.220Z,0
2022-08-12T01:20:02.127Z,0
2022-08-12T01:22:06.878Z,0
2022-08-12T01:23:10.002Z,0
2022-08-12T01:24:33.161Z,0
2022-08-12T01:25:57.516Z,0
2022-08-12T01:28:03.839Z,0
2022-08-12T01:30:10.588Z,0
2022-08-12T01:31:18.215Z,0
2022-08-12T01:33:23.739Z,0
2022-08-12T01:34:40.266Z,0
2022-08-12T01:35:42.826Z,0
2022-08-12T01:37:48.088Z,0
2022-08-12T01:38:50.446Z,0
2022-08-12T01:40:47.936Z,0
2022-08-12T01:42:58.672Z,0
2022-08-12T01:44:00.970Z,0
2022-08-12T01:46:05.965Z,0
2022-08-12T01:47:09.103Z,0
2022-08-12T01:48:11.999Z,0
2022-08-12T01:49:22.485Z,0
2022-08-12T01:52:24.245Z,0
2022-08-12T01:54:29.637Z,0
2022-08-12T01:56:35.338Z,0
2022-08-12T01:58:03.901Z,0
2022-08-12T01:59:13.598Z,0
2022-08-12T02:00:16.729Z,0
2022-08-12T02:02:23.509Z,0
2022-08-12T02:03:26.905Z,0
2022-08-12T02:04:29.748Z,0
2022-08-12T02:05:34.754Z,0
2022-08-12T02:06:37.333Z,0
2022-08-12T02:07:39.680Z,0
2022-08-12T02:08:42.310Z,0
2022-08-12T02:09:45.203Z,0
2022-08-12T02:10:54.158Z,0
2022-08-12T02:12:09.736Z,0
2022-08-12T02:14:15.886Z,0
2022-08-12T02:15:18.231Z,0
2022-08-12T02:17:58.265Z,0
2022-08-12T02:20:04.273Z,0
2022-08-12T02:21:07.200Z,0
2022-08-12T02:23:12.771Z,0
2022-08-12T02:25:18.090Z,0
2022-08-12T02:27:23.914Z,0
2022-08-12T02:28:26.269Z,0
2022-08-12T02:30:44.013Z,0
2022-08-12T02:32:49.545Z,0
2022-08-12T02:34:55.447Z,0
2022-08-12T02:35:58.630Z,0
2022-08-12T02:38:08.452Z,0
2022-08-12T02:40:14.243Z,0
2022-08-12T02:42:19.995Z,0
2022-08-12T02:43:22.570Z,0
2022-08-12T02:45:28.419Z,0
2022-08-12T02:48:03.076Z,0
2022-08-12T02:50:09.174Z,0
2022-08-12T02:51:11.812Z,0
2022-08-12T02:53:16.852Z,0
2022-08-12T02:55:36.754Z,0
2022-08-12T02:57:43.274Z,0
2022-08-12T02:58:48.668Z,0
2022-08-12T03:00:56.069Z,0
2022-08-12T03:03:02.195Z,0
2022-08-12T03:04:04.773Z,0
2022-08-12T03:05:07.168Z,0
2022-08-12T03:06:09.248Z,0
2022-08-12T03:08:37.118Z,0
2022-08-12T03:10:38.459Z,0
2022-08-12T03:11:53.888Z,0
2022-08-12T03:14:01.719Z,0
2022-08-12T03:16:07.800Z,0
2022-08-12T03:17:10.705Z,0
2022-08-12T03:18:30.598Z,0
2022-08-12T03:19:33.498Z,0
2022-08-12T03:22:10.915Z,0
2022-08-12T03:23:32.905Z,0
2022-08-12T03:24:39.383Z,0
2022-08-12T03:26:44.630Z,0
2022-08-12T03:28:51.635Z,0
2022-08-12T03:29:53.838Z,0
2022-08-12T03:32:03.201Z,0
2022-08-12T03:34:08.105Z,0
2022-08-12T03:35:43.570Z,1
2022-08-12T03:36:46.694Z,1
2022-08-12T03:38:52.480Z,1
2022-08-12T03:39:56.254Z,1
2022-08-12T03:40:59.167Z,1
2022-08-12T03:42:02.048Z,2
2022-08-12T03:44:07.043Z,2
2022-08-12T03:45:09.643Z,2
2022-08-12T03:47:14.901Z,3
2022-08-12T03:49:24.355Z,3
2022-08-12T03:51:29.057Z,4
2022-08-12T03:52:32.155Z,4
2022-08-12T03:54:44.393Z,5
2022-08-12T03:55:47.028Z,5
2022-08-12T03:56:49.597Z,6
2022-08-12T03:58:55.466Z,7
2022-08-12T03:59:58.254Z,7
2022-08-12T04:02:04.875Z,8
2022-08-12T04:03:14.442Z,8
2022-08-12T04:04:17.063Z,9
2022-08-12T04:05:57.530Z,9
2022-08-12T04:07:00.599Z,10
2022-08-12T04:09:04.977Z,11
2022-08-12T04:10:07.908Z,11
2022-08-12T04:12:12.664Z,12
2022-08-12T04:14:17.649Z,13
2022-08-12T04:15:20.572Z,13
2022-08-12T04:16:23.147Z,14
2022-08-12T04:17:26.067Z,15
2022-08-12T04:19:31.608Z,16
2022-08-12T04:20:34.520Z,16
2022-08-12T04:22:03.751Z,17
2022-08-12T04:23:07.223Z,18
2022-08-12T04:24:09.578Z,18
2022-08-12T04:25:13.311Z,19
2022-08-12T04:27:18.919Z,20
2022-08-12T04:28:21.825Z,20
2022-08-12T04:30:35.123Z,21
2022-08-12T04:32:47.904Z,22
2022-08-12T04:33:51.154Z,23
2022-08-12T04:34:54.330Z,23
2022-08-12T04:35:57.226Z,24
2022-08-12T04:38:03.392Z,25
2022-08-12T04:40:09.789Z,26
2022-08-12T04:42:14.731Z,27
2022-08-12T04:44:04.075Z,27
2022-08-12T04:45:07.134Z,28
2022-08-12T04:46:09.758Z,29
2022-08-12T04:47:12.694Z,29
2022-08-12T04:48:18.201Z,30
2022-08-12T04:50:38.687Z,31
2022-08-12T04:52:45.027Z,32
2022-08-12T04:53:47.098Z,32
2022-08-12T04:55:53.468Z,33
2022-08-12T04:57:07.064Z,34
2022-08-12T04:58:09.641Z,34
2022-08-12T05:00:15.506Z,35
2022-08-12T05:01:18.424Z,36
2022-08-12T05:03:27.162Z,37
2022-08-12T05:05:38.000Z,38
2022-08-12T05:06:40.641Z,38
2022-08-12T05:07:56.969Z,39
2022-08-12T05:10:05.362Z,40
2022-08-12T05:11:08.197Z,40
2022-08-12T05:13:14.199Z,41
2022-08-12T05:15:32.471Z,42
2022-08-12T05:16:40.807Z,42
2022-08-12T05:17:48.707Z,43
2022-08-12T05:18:52.550Z,43
2022-08-12T05:20:02.496Z,44
2022-08-12T05:21:05.687Z,44
2022-08-12T05:23:15.577Z,45
2022-08-12T05:25:24.348Z,46
2022-08-12T05:26:26.987Z,46
2022-08-12T05:28:34.995Z,47
2022-08-12T05:30:10.545Z,48
2022-08-12T05:31:13.117Z,48
2022-08-12T05:33:18.393Z,49
2022-08-12T05:35:30.948Z,50
2022-08-12T05:36:34.150Z,51
2022-08-12T05:38:38.598Z,51
2022-08-12T05:40:44.355Z,52
2022-08-12T05:42:49.851Z,52
2022-08-12T05:43:53.392Z,52
2022-08-12T05:45:58.365Z,53
2022-08-12T05:48:03.807Z,54
2022-08-12T05:49:06.674Z,55
2022-08-12T05:50:08.952Z,55
2022-08-12T05:51:16.093Z,55
2022-08-12T05:53:25.013Z,56
2022-08-12T05:54:59.437Z,57
2022-08-12T05:56:02.254Z,57
2022-08-12T05:57:04.892Z,58
2022-08-12T05:58:07.466Z,58
2022-08-12T05:59:10.424Z,58
2022-08-12T06:02:15.006Z,59
2022-08-12T06:03:21.197Z,60
2022-08-12T06:04:23.841Z,60
2022-08-12T06:06:39.973Z,61
2022-08-12T06:08:04.618Z,61
2022-08-12T06:09:07.505Z,62
2022-08-12T06:10:10.413Z,62
2022-08-12T06:12:16.294Z,63
2022-08-12T06:13:59.104Z,63
2022-08-12T06:15:13.797Z,65
2022-08-12T06:17:18.102Z,65
2022-08-12T06:20:29.703Z,66
2022-08-12T06:21:41.116Z,66
2022-08-12T06:22:44.264Z,67
2022-08-12T06:24:50.484Z,68
2022-08-12T06:26:56.597Z,68
2022-08-12T06:28:10.188Z,69
2022-08-12T06:29:13.034Z,69
2022-08-12T06:30:40.812Z,69
2022-08-12T06:35:50.323Z,71
2022-08-12T06:37:03.251Z,72
2022-08-12T06:38:06.038Z,72
2022-08-12T06:39:17.531Z,73
2022-08-12T06:40:20.539Z,73
2022-08-12T06:41:23.108Z,74
2022-08-12T06:42:34.767Z,74
2022-08-12T06:44:09.426Z,74
2022-08-12T06:46:16.764Z,75
2022-08-12T06:48:22.312Z,76
2022-08-12T06:50:40.706Z,77
2022-08-12T06:51:58.702Z,77
2022-08-12T06:53:01.833Z,78
2022-08-12T06:54:05.054Z,78
2022-08-12T06:56:14.724Z,79
2022-08-12T06:58:12.010Z,79
2022-08-12T06:59:14.932Z,80
2022-08-12T07:01:21.104Z,81
2022-08-12T07:03:26.503Z,82
2022-08-12T07:04:45.113Z,82
2022-08-12T07:05:51.170Z,82
2022-08-12T07:06:54.078Z,83
2022-08-12T07:09:00.231Z,83
2022-08-12T07:10:10.556Z,84
2022-08-12T07:11:13.146Z,85
2022-08-12T07:12:18.333Z,85
2022-08-12T07:14:23.375Z,86
2022-08-12T07:16:28.931Z,86
2022-08-12T07:18:33.891Z,87
2022-08-12T07:19:46.914Z,88
2022-08-12T07:20:55.492Z,88
2022-08-12T07:22:04.612Z,88
2022-08-12T07:23:07.527Z,89
2022-08-12T07:24:10.374Z,89
2022-08-12T07:26:18.128Z,90
2022-08-12T07:27:20.763Z,91
2022-08-12T07:30:06.701Z,91
2022-08-12T07:31:10.116Z,92
2022-08-12T07:32:13.032Z,92
2022-08-12T07:34:19.071Z,93
2022-08-12T07:36:23.871Z,94
2022-08-12T07:37:26.726Z,94
2022-08-12T07:38:34.133Z,95
2022-08-12T07:40:01.010Z,95
2022-08-12T07:42:07.021Z,96
2022-08-12T07:44:12.023Z,97
2022-08-12T07:46:17.954Z,98
2022-08-12T07:47:20.860Z,99
2022-08-12T07:49:27.786Z,100
2022-08-12T07:51:33.886Z,100
2022-08-12T07:52:37.133Z,101
2022-08-12T07:54:04.570Z,101
2022-08-12T07:55:07.176Z,102
2022-08-12T07:57:13.338Z,103
2022-08-12T07:59:18.662Z,104
2022-08-12T08:00:21.157Z,105
2022-08-12T08:02:39.025Z,105
2022-08-12T08:03:51.323Z,106
2022-08-12T08:04:54.233Z,107
2022-08-12T08:06:59.150Z,108
2022-08-12T08:09:04.758Z,109
2022-08-12T08:10:07.999Z,109
2022-08-12T08:11:16.246Z,110
2022-08-12T08:12:24.785Z,111
2022-08-12T08:13:27.866Z,111
2022-08-12T08:14:31.133Z,112
2022-08-12T08:16:06.114Z,113
2022-08-12T08:17:08.634Z,114
2022-08-12T08:19:14.247Z,144
2022-08-12T08:20:16.813Z,534
2022-08-12T08:22:44.891Z,903
2022-08-12T08:24:11.707Z,903
2022-08-12T08:25:39.149Z,918
2022-08-12T08:26:41.783Z,945
2022-08-12T08:27:44.693Z,962
2022-08-12T08:29:49.728Z,996
2022-08-12T08:31:55.553Z,949
2022-08-12T08:32:58.727Z,752
2022-08-12T08:34:56.249Z,461
2022-08-12T08:36:04.017Z,129
2022-08-12T08:37:20.251Z,130
2022-08-12T08:38:37.122Z,130
2022-08-12T08:40:42.513Z,344
2022-08-12T08:42:22.178Z,773
2022-08-12T08:43:45.426Z,1003
2022-08-12T08:45:00.157Z,999
2022-08-12T08:46:03.059Z,999
2022-08-12T08:48:08.050Z,1005
2022-08-12T08:50:13.112Z,1001
2022-08-12T08:51:16.512Z,998
2022-08-12T08:52:42.788Z,989
2022-08-12T08:53:54.577Z,999
2022-08-12T08:54:57.150Z,1001
2022-08-12T08:56:07.993Z,1012
2022-08-12T08:58:14.374Z,1010
2022-08-12T09:00:19.586Z,1013
2022-08-12T09:01:22.793Z,1003
2022-08-12T09:05:26.883Z,1021
2022-08-12T09:28:48.661Z,1034
2022-08-12T09:30:16.317Z,1159
2022-08-12T09:34:32.101Z,1145
2022-08-12T09:36:06.287Z,1125
2022-08-12T09:37:26.245Z,1126
2022-08-12T09:38:37.458Z,1135
2022-08-12T09:43:26.730Z,1148
2022-08-12T09:44:42.812Z,1106
2022-08-12T09:46:27.744Z,1117
2022-08-12T09:47:37.513Z,1077
2022-08-12T09:48:59.764Z,1046
2022-08-12T09:50:21.999Z,1013
2022-08-12T09:51:46.197Z,1024
2022-08-12T09:53:05.804Z,1086
2022-08-12T09:54:53.868Z,1133
2022-08-12T09:59:03.387Z,1190
2022-08-12T10:00:54.595Z,1161
2022-08-12T10:02:52.050Z,1117
2022-08-12T10:04:07.605Z,1083
2022-08-12T10:05:22.149Z,1070
2022-08-12T10:06:58.400Z,1076
2022-08-12T10:08:04.622Z,1070
2022-08-12T10:10:35.531Z,1114
2022-08-12T10:12:33.178Z,1141
2022-08-12T10:14:34.949Z,1155
2022-08-12T10:16:22.286Z,1157
2022-08-12T10:17:26.810Z,1147
2022-08-12T10:18:30.614Z,1143
2022-08-12T10:20:40.847Z,1118
2022-08-12T10:21:44.763Z,1115
2022-08-12T10:22:54.052Z,1114
2022-08-12T10:23:59.496Z,1111
2022-08-12T10:26:41.344Z,1149
2022-08-12T10:28:26.394Z,1185
2022-08-12T10:31:06.137Z,1220
2022-08-12T10:32:58.442Z,1206
2022-08-12T10:34:28.727Z,1212
2022-08-12T10:35:40.269Z,1213
2022-08-12T10:36:53.148Z,1213
2022-08-12T10:38:57.372Z,1204
2022-08-12T10:40:33.341Z,1183
2022-08-12T10:42:02.426Z,1144
2022-08-12T10:44:18.757Z,1069
2022-08-12T10:46:33.900Z,970
2022-08-12T10:48:37.422Z,938
2022-08-12T10:52:37.869Z,946
2022-08-12T10:53:53.423Z,1025
2022-08-12T10:55:17.963Z,1078
2022-08-12T10:58:33.176Z,1174
2022-08-12T11:04:43.617Z,1243
2022-08-12T11:08:48.638Z,1233
2022-08-12T11:10:05.086Z,1225
2022-08-12T11:13:01.608Z,1221
2022-08-12T11:14:55.608Z,1189
2022-08-12T11:16:30.670Z,1175
2022-08-12T11:18:04.131Z,1173
2022-08-12T11:19:08.727Z,1161
2022-08-12T11:22:03.744Z,1167
2022-08-12T11:23:41.817Z,1176
2022-08-12T11:24:59.702Z,1165
2022-08-12T11:26:09.733Z,1165
2022-08-12T11:27:15.963Z,1150
2022-08-12T11:28:40.062Z,1167
2022-08-12T11:30:33.973Z,1172
2022-08-12T11:32:04.323Z,1166
2022-08-12T11:34:59.255Z,1153
2022-08-12T11:36:03.196Z,1144
2022-08-12T11:37:27.915Z,1131
2022-08-12T11:38:29.937Z,1127
2022-08-12T11:42:14.388Z,940
2022-08-12T11:43:21.724Z,893
2022-08-12T11:44:45.308Z,857
2022-08-12T11:45:57.723Z,885
2022-08-12T11:48:04.827Z,1000
2022-08-12T11:50:32.673Z,1067
2022-08-12T11:51:41.320Z,1082
2022-08-12T11:52:59.543Z,1093
2022-08-12T11:55:05.767Z,1090
2022-08-12T11:56:12.031Z,1089
2022-08-12T12:03:07.032Z,1059
2022-08-12T12:04:11.958Z,1058
2022-08-12T12:05:18.617Z,1053
2022-08-12T12:06:26.117Z,1048
2022-08-12T12:08:54.389Z,1052
2022-08-12T12:11:00.980Z,1043
2022-08-12T12:12:06.960Z,1043
2022-08-12T12:14:15.902Z,1043
2022-08-12T12:15:42.070Z,1039
2022-08-12T12:16:52.918Z,1036
2022-08-12T12:18:59.542Z,1013
2022-08-12T12:20:01.631Z,999
2022-08-12T12:21:12.945Z,1000
2022-08-12T12:22:31.750Z,1002
2022-08-12T12:23:37.837Z,996
2022-08-12T12:24:41.511Z,1002
2022-08-12T12:26:39.292Z,997
2022-08-12T12:28:37.601Z,981
2022-08-12T12:30:31.970Z,981
2022-08-12T12:32:15.101Z,977
2022-08-12T12:33:19.507Z,958
2022-08-12T12:34:32.266Z,950
2022-08-12T12:36:31.424Z,958
2022-08-12T12:38:14.089Z,941
2022-08-12T12:39:22.473Z,930
2022-08-12T12:40:40.228Z,923
2022-08-12T12:43:07.594Z,920
2022-08-12T12:44:54.201Z,936
2022-08-12T12:45:58.709Z,947
2022-08-12T12:48:05.760Z,937
2022-08-12T12:49:16.782Z,930
2022-08-12T12:50:52.835Z,926
2022-08-12T12:52:30.135Z,927
2022-08-12T12:54:11.020Z,918
2022-08-12T12:55:15.757Z,908
2022-08-12T12:56:17.618Z,914
2022-08-12T12:58:02.090Z,914
2022-08-12T12:59:04.548Z,908
2022-08-12T13:00:07.086Z,894
2022-08-12T13:01:42.717Z,876
2022-08-12T13:02:55.740Z,858
2022-08-12T13:04:05.462Z,846
2022-08-12T13:05:28.997Z,826
2022-08-12T13:06:36.380Z,823
2022-08-12T13:08:04.219Z,823
2022-08-12T13:09:14.983Z,805
2022-08-12T13:10:17.592Z,664
2022-08-12T13:11:32.702Z,789
2022-08-12T13:12:54.819Z,825
2022-08-12T13:14:35.357Z,825
2022-08-12T13:15:50.000Z,827
2022-08-12T13:16:54.707Z,814
2022-08-12T13:18:06.347Z,546
2022-08-12T13:19:09.438Z,783
2022-08-12T13:20:43.167Z,755
2022-08-12T13:21:45.591Z,714
2022-08-12T13:23:49.811Z,670
2022-08-12T13:24:59.631Z,636
2022-08-12T13:26:01.969Z,736
2022-08-12T13:27:08.540Z,324
2022-08-12T13:28:14.059Z,506
2022-08-12T13:29:17.195Z,231
2022-08-12T13:30:25.735Z,252
2022-08-12T13:31:28.294Z,286
2022-08-12T13:32:59.026Z,340
2022-08-12T13:34:37.811Z,373
2022-08-12T13:36:20.961Z,279
2022-08-12T13:37:26.765Z,203
2022-08-12T13:38:57.767Z,265
2022-08-12T13:40:00.156Z,150
2022-08-12T13:42:15.509Z,228
2022-08-12T13:43:44.778Z,204
2022-08-12T13:44:54.360Z,610
2022-08-12T13:45:56.857Z,225
2022-08-12T13:47:22.143Z,149
2022-08-12T13:48:30.363Z,162
2022-08-12T13:49:57.375Z,622
2022-08-12T13:51:07.191Z,381
2022-08-12T13:52:09.556Z,662
2022-08-12T13:54:14.405Z,675
2022-08-12T13:55:16.362Z,668
2022-08-12T13:57:27.350Z,671
2022-08-12T14:00:02.614Z,625
2022-08-12T14:01:09.866Z,390
2022-08-12T14:02:12.230Z,642
2022-08-12T14:03:15.055Z,630
2022-08-12T14:05:41.355Z,614
2022-08-12T14:06:50.223Z,615
2022-08-12T14:07:55.813Z,620
2022-08-12T14:09:18.065Z,617
2022-08-12T14:10:30.406Z,608
2022-08-12T14:12:38.127Z,574
2022-08-12T14:14:17.940Z,560
2022-08-12T14:15:38.017Z,546
2022-08-12T14:16:54.042Z,542
2022-08-12T14:17:58.083Z,551
2022-08-12T14:19:25.686Z,556
2022-08-12T14:20:51.737Z,560
2022-08-12T14:22:06.963Z,559
2022-08-12T14:24:12.301Z,555
2022-08-12T14:25:18.163Z,488
2022-08-12T14:26:22.702Z,460
2022-08-12T14:28:10.576Z,454
2022-08-12T14:30:30.159Z,502
2022-08-12T14:31:34.318Z,495
2022-08-12T14:33:45.860Z,462
2022-08-12T14:35:52.570Z,472
2022-08-12T14:36:55.939Z,414
2022-08-12T14:39:06.775Z,207
2022-08-12T14:41:15.036Z,177
2022-08-12T14:42:20.787Z,172
2022-08-12T14:45:02.318Z,170
2022-08-12T14:46:10.550Z,164
2022-08-12T14:47:12.641Z,162
2022-08-12T14:56:58.241Z,157
2022-08-12T14:58:36.163Z,144
2022-08-12T15:00:01.323Z,143
2022-08-12T15:01:08.025Z,141
2022-08-12T15:02:12.011Z,140
2022-08-12T15:03:17.276Z,139
2022-08-12T15:04:19.564Z,140
2022-08-12T15:06:54.603Z,138
2022-08-12T15:08:10.786Z,136
2022-08-12T15:09:16.408Z,134
2022-08-12T15:10:36.264Z,134
2022-08-12T15:12:14.951Z,132
2022-08-12T15:13:17.896Z,132
2022-08-12T15:15:25.942Z,131
2022-08-12T15:16:28.745Z,129
2022-08-12T15:17:39.782Z,128
2022-08-12T15:19:20.179Z,126
2022-08-12T15:22:55.168Z,126
2022-08-12T15:23:59.312Z,124
2022-08-12T15:26:05.955Z,122
2022-08-12T15:28:25.746Z,121
2022-08-12T15:29:30.844Z,120
2022-08-12T15:30:34.629Z,121
2022-08-12T15:32:32.858Z,120
2022-08-12T15:33:47.602Z,117
2022-08-12T15:34:54.341Z,116
2022-08-12T15:37:00.824Z,116
2022-08-12T15:38:22.014Z,114
2022-08-12T15:39:30.017Z,115
2022-08-12T15:40:49.331Z,112
2022-08-12T15:42:04.755Z,111
2022-08-12T15:44:46.988Z,108
2022-08-12T15:45:49.001Z,106
2022-08-12T15:46:54.234Z,106
2022-08-12T15:48:30.992Z,105
2022-08-12T15:50:06.029Z,103
2022-08-12T15:52:29.790Z,101
2022-08-12T15:54:49.593Z,98
2022-08-12T15:56:01.502Z,97
2022-08-12T15:57:16.862Z,96
2022-08-12T15:58:34.902Z,94
2022-08-12T16:00:35.033Z,94
2022-08-12T16:01:37.706Z,92
2022-08-12T16:02:39.808Z,91
2022-08-12T16:04:01.821Z,90
2022-08-12T16:07:10.337Z,89
2022-08-12T16:08:28.742Z,86
2022-08-12T16:10:10.713Z,85
2022-08-12T16:11:20.607Z,84
2022-08-12T16:12:28.768Z,83
2022-08-12T16:13:36.961Z,82
2022-08-12T16:14:40.731Z,81
2022-08-12T16:16:25.354Z,80
2022-08-12T16:18:26.694Z,79
2022-08-12T16:20:07.542Z,77
2022-08-12T16:21:59.757Z,75
2022-08-12T16:24:02.010Z,73
2022-08-12T16:25:06.745Z,72
2022-08-12T16:26:35.591Z,71
2022-08-12T16:27:41.607Z,70
2022-08-12T16:28:49.254Z,68
2022-08-12T16:29:56.336Z,68
2022-08-12T16:30:58.689Z,66
2022-08-12T16:33:06.200Z,65
2022-08-12T16:35:00.682Z,64
2022-08-12T16:36:05.119Z,62
2022-08-12T16:38:32.198Z,61
2022-08-12T16:40:07.979Z,61
2022-08-12T16:41:11.168Z,61
2022-08-12T16:43:16.858Z,59
2022-08-12T16:44:35.643Z,59
2022-08-12T16:46:35.671Z,58
2022-08-12T16:48:04.494Z,58
2022-08-12T16:49:16.446Z,57
2022-08-12T16:50:32.982Z,56
2022-08-12T16:51:48.431Z,56
2022-08-12T16:52:51.365Z,55
2022-08-12T16:53:53.646Z,55
2022-08-12T16:56:02.012Z,54
2022-08-12T16:58:32.744Z,53
2022-08-12T16:59:58.270Z,52
2022-08-12T17:01:06.405Z,52
2022-08-12T17:02:35.085Z,51
2022-08-12T17:03:57.054Z,51
2022-08-12T17:05:05.112Z,50
2022-08-12T17:06:10.978Z,50
2022-08-12T17:08:31.842Z,48
2022-08-12T17:09:42.186Z,48
2022-08-12T17:10:54.937Z,48
2022-08-12T17:13:14.210Z,47
2022-08-12T17:14:16.821Z,46
2022-08-12T17:16:19.736Z,46
2022-08-12T17:17:42.581Z,45
2022-08-12T17:19:12.840Z,44
2022-08-12T17:20:47.991Z,43
2022-08-12T17:22:04.134Z,43
2022-08-12T17:23:17.184Z,42
2022-08-12T17:24:32.108Z,42
2022-08-12T17:26:39.750Z,41
2022-08-12T17:28:54.739Z,40
2022-08-12T17:30:13.965Z,39
2022-08-12T17:32:06.327Z,38
2022-08-12T17:34:22.250Z,37
2022-08-12T17:35:51.295Z,37
2022-08-12T17:36:53.586Z,36
2022-08-12T17:39:01.880Z,35
2022-08-12T17:40:40.307Z,34
2022-08-12T17:41:59.205Z,33
2022-08-12T17:44:05.187Z,32
2022-08-12T17:45:20.901Z,32
2022-08-12T17:46:35.472Z,31
2022-08-12T17:47:39.669Z,31
2022-08-12T17:49:00.541Z,30
2022-08-12T17:51:17.347Z,29
2022-08-12T17:52:20.174Z,28
2022-08-12T17:54:25.241Z,27
2022-08-12T17:55:50.055Z,26
2022-08-12T17:56:58.606Z,25
2022-08-12T17:58:06.069Z,25
2022-08-12T17:59:54.116Z,24
2022-08-12T18:00:57.584Z,23
2022-08-12T18:02:01.799Z,23
2022-08-12T18:03:06.735Z,22
2022-08-12T18:05:09.918Z,22
2022-08-12T18:06:17.554Z,21
2022-08-12T18:08:34.134Z,20
2022-08-12T18:10:54.631Z,19
2022-08-12T18:12:10.082Z,18
2022-08-12T18:13:44.465Z,17
2022-08-12T18:16:12.949Z,16
2022-08-12T18:17:28.806Z,15
2022-08-12T18:18:33.875Z,15
2022-08-12T18:20:17.835Z,14
2022-08-12T18:21:20.075Z,14
2022-08-12T18:22:33.653Z,13
2022-08-12T18:23:55.170Z,13
2022-08-12T18:26:17.386Z,12
2022-08-12T18:28:19.081Z,11
2022-08-12T18:29:44.295Z,10
2022-08-12T18:31:04.755Z,9
2022-08-12T18:33:07.098Z,9
2022-08-12T18:34:21.383Z,8
2022-08-12T18:35:58.878Z,8
2022-08-12T18:37:43.526Z,7
2022-08-12T18:39:02.002Z,6
2022-08-12T18:40:04.830Z,6
2022-08-12T18:42:15.820Z,5
2022-08-12T18:44:26.642Z,4
2022-08-12T18:45:59.223Z,4
2022-08-12T18:47:02.483Z,3
2022-08-12T18:48:07.029Z,3
2022-08-12T18:49:41.252Z,3
2022-08-12T18:50:51.383Z,3
2022-08-12T18:52:12.376Z,2
2022-08-12T18:54:10.276Z,2
2022-08-12T18:55:16.765Z,2
2022-08-12T18:56:36.368Z,1
2022-08-12T18:58:11.811Z,1
2022-08-12T19:00:08.559Z,1
2022-08-12T19:02:25.148Z,1
2022-08-12T19:03:41.496Z,0
2022-08-12T19:04:53.966Z,0
2022-08-12T19:05:56.299Z,0
2022-08-12T19:06:58.871Z,0
2022-08-12T19:09:11.922Z,0
2022-08-12T19:11:18.140Z,0
2022-08-12T19:12:30.809Z,0
2022-08-12T19:14:37.786Z,0
2022-08-12T19:16:49.728Z,0
2022-08-12T19:18:05.866Z,0
2022-08-12T19:19:10.711Z,0
2022-08-12T19:20:19.990Z,0
2022-08-12T19:22:34.864Z,0
2022-08-12T19:23:37.595Z,0
2022-08-12T19:24:46.806Z,0
2022-08-12T19:26:04.282Z,0
2022-08-12T19:27:10.958Z,0
2022-08-12T19:28:39.114Z,0
2022-08-12T19:30:11.290Z,0
2022-08-12T19:32:32.989Z,0
2022-08-12T19:36:07.258Z,0
2022-08-12T19:38:07.814Z,0
2022-08-12T19:39:30.551Z,0
2022-08-12T19:40:38.503Z,0
2022-08-12T19:42:05.575Z,0
2022-08-12T19:43:23.538Z,0
2022-08-12T19:44:28.973Z,0
2022-08-12T19:45:50.325Z,0
2022-08-12T19:46:54.749Z,0
2022-08-12T19:49:08.344Z,0
2022-08-12T19:50:21.347Z,0
2022-08-12T19:51:36.780Z,0
2022-08-12T19:53:59.802Z,0
2022-08-12T19:56:04.849Z,0
2022-08-12T19:57:10.412Z,0
2022-08-12T19:58:21.717Z,0
2022-08-12T19:59:24.077Z,0
2022-08-12T20:02:06.433Z,0
2022-08-12T20:03:42.178Z,0
2022-08-12T20:06:34.512Z,0
2022-08-12T20:08:00.574Z,0
2022-08-12T20:09:02.419Z,0
2022-08-12T20:10:04.774Z,0
2022-08-12T20:13:17.861Z,0
2022-08-12T20:14:42.560Z,0
2022-08-12T20:16:00.219Z,0
2022-08-12T20:17:05.467Z,0
2022-08-12T20:18:59.337Z,0
2022-08-12T20:20:36.064Z,0
2022-08-12T20:21:44.901Z,0
2022-08-12T20:22:54.568Z,0
2022-08-12T20:24:11.061Z,0
2022-08-12T20:25:16.353Z,0
2022-08-12T20:26:22.923Z,0
2022-08-12T20:28:10.000Z,0
2022-08-12T20:30:14.536Z,0
2022-08-12T20:31:20.863Z,0
2022-08-12T20:32:53.372Z,0
2022-08-12T20:33:58.213Z,0
2022-08-12T20:35:19.810Z,0
2022-08-12T20:38:33.266Z,0
2022-08-12T20:40:06.877Z,0
2022-08-12T20:41:25.254Z,0
2022-08-12T20:42:33.558Z,0
2022-08-12T20:43:44.701Z,0
2022-08-12T20:46:00.131Z,0
2022-08-12T20:47:21.356Z,0
2022-08-12T20:48:24.048Z,0
2022-08-12T20:49:36.669Z,0
2022-08-12T20:50:38.904Z,0
2022-08-12T20:51:56.985Z,0
2022-08-12T20:52:59.055Z,0
2022-08-12T20:54:05.008Z,0
2022-08-12T20:55:20.976Z,0
2022-08-12T20:57:09.884Z,0
2022-08-12T20:58:12.420Z,0
2022-08-12T20:59:32.199Z,0
2022-08-12T21:00:40.140Z,0
2022-08-12T21:01:55.296Z,0
2022-08-12T21:02:59.723Z,0
2022-08-12T21:04:04.027Z,0
2022-08-12T21:05:23.046Z,0
2022-08-12T21:06:30.656Z,0
2022-08-12T21:07:53.396Z,0
2022-08-12T21:09:01.072Z,0
2022-08-12T21:11:06.882Z,0
2022-08-12T21:12:39.017Z,0
2022-08-12T21:13:43.833Z,0
2022-08-12T21:15:24.477Z,0
2022-08-12T21:17:05.609Z,0
2022-08-12T21:18:32.787Z,0
2022-08-12T21:19:55.694Z,0
2022-08-12T21:22:25.173Z,0
2022-08-12T21:23:42.057Z,0
2022-08-12T21:24:48.176Z,0
2022-08-12T21:25:53.652Z,0
2022-08-12T21:26:56.285Z,0
2022-08-12T21:28:04.078Z,0
2022-08-12T21:30:09.536Z,0
2022-08-12T21:32:42.614Z,0
2022-08-12T21:34:11.507Z,0
2022-08-12T21:35:26.957Z,0
2022-08-12T21:36:37.087Z,0
2022-08-12T21:37:53.735Z,0
2022-08-12T21:40:17.736Z,0
2022-08-12T21:41:29.837Z,0
2022-08-12T21:42:34.636Z,0
2022-08-12T21:43:52.615Z,0
2022-08-12T21:46:05.342Z,0
2022-08-12T21:47:24.030Z,0
2022-08-12T21:48:26.966Z,0
2022-08-12T21:50:09.009Z,0
2022-08-12T21:51:51.788Z,0
2022-08-12T21:52:55.149Z,0
2022-08-12T21:54:22.981Z,0
2022-08-12T21:55:28.229Z,0
2022-08-12T21:58:11.473Z,0
2022-08-12T21:59:18.732Z,0
2022-08-12T22:00:21.281Z,0
2022-08-12T22:01:24.586Z,0
2022-08-12T22:02:33.280Z,0
2022-08-12T22:04:14.023Z,0
2022-08-12T22:05:21.396Z,0
2022-08-12T22:06:45.484Z,0
2022-08-12T22:08:00.004Z,0
2022-08-12T22:09:06.188Z,0
2022-08-12T22:10:13.911Z,0
2022-08-12T22:12:00.446Z,0
2022-08-12T22:14:09.207Z,0
2022-08-12T22:15:29.325Z,0
2022-08-12T22:16:48.772Z,0
2022-08-12T22:17:58.730Z,0
2022-08-12T22:19:06.283Z,0
2022-08-12T22:21:15.389Z,0
2022-08-12T22:24:06.705Z,0
2022-08-12T22:25:28.200Z,0
2022-08-12T22:26:43.290Z,0
2022-08-12T22:28:49.512Z,0
2022-08-12T22:30:54.839Z,0
2022-08-12T22:33:02.210Z,0
2022-08-12T22:34:04.607Z,0
2022-08-12T22:35:59.325Z,0
2022-08-12T22:37:03.289Z,0
2022-08-12T22:38:20.167Z,0
2022-08-12T22:39:31.879Z,0
2022-08-12T22:40:37.306Z,0
2022-08-12T22:42:53.382Z,0
2022-08-12T22:44:05.555Z,0
2022-08-12T22:45:17.789Z,0
2022-08-12T22:46:31.777Z,0
2022-08-12T22:47:57.541Z,0
2022-08-12T22:49:01.490Z,0
2022-08-12T22:51:09.736Z,0
2022-08-12T22:52:13.190Z,0